createdAt,value
2018-11-07T00:00:53.485Z,70.76
2018-11-07T00:03:24.999Z,70.97
2018-11-07T00:05:56.102Z,71.07
2018-11-07T00:08:27.645Z,71.37
2018-11-07T00:10:58.643Z,71.60
2018-11-07T00:13:29.732Z,71.70
2018-11-07T00:16:00.810Z,71.76
2018-11-07T00:18:31.964Z,71.85
2018-11-07T00:21:03.118Z,71.76
2018-11-07T00:23:34.488Z,71.83
2018-11-07T00:26:05.517Z,72.04
2018-11-07T00:28:36.615Z,72.21
2018-11-07T00:31:09.759Z,72.23
2018-11-07T00:33:40.828Z,72.22
2018-11-07T00:36:12.047Z,72.19
2018-11-07T00:38:43.149Z,72.06
2018-11-07T00:41:14.575Z,71.97
2018-11-07T00:43:45.995Z,71.92
2018-11-07T00:48:41.672Z,71.89
2018-11-07T00:51:12.725Z,72.02
2018-11-07T00:53:43.827Z,72.03
2018-11-07T00:56:14.879Z,72.11
2018-11-07T00:58:46.624Z,72.15
2018-11-07T01:01:18.048Z,72.04
2018-11-07T01:03:49.294Z,72.09
2018-11-07T01:06:20.702Z,72.06
2018-11-07T01:08:51.772Z,71.94
2018-11-07T01:11:22.917Z,71.89
2018-11-07T01:13:54.558Z,71.81
2018-11-07T01:16:25.689Z,71.76
2018-11-07T01:18:56.969Z,71.70
2018-11-07T01:21:28.098Z,71.63
2018-11-07T01:23:59.447Z,71.58
2018-11-07T01:26:30.489Z,71.51
2018-11-07T01:29:01.725Z,71.41
2018-11-07T01:31:32.811Z,71.16
2018-11-07T01:34:03.834Z,71.10
2018-11-07T01:36:34.921Z,71.06
2018-11-07T01:39:07.698Z,70.98
2018-11-07T01:41:39.231Z,70.94
2018-11-07T01:44:10.639Z,70.94
2018-11-07T01:46:41.698Z,70.94
2018-11-07T01:49:13.101Z,70.97
2018-11-07T01:51:44.470Z,70.98
2018-11-07T01:54:15.774Z,71.00
2018-11-07T01:56:47.371Z,71.15
2018-11-07T01:59:20.099Z,71.21
2018-11-07T02:01:51.213Z,71.27
2018-11-07T02:04:22.260Z,71.26
2018-11-07T02:06:53.339Z,71.32
2018-11-07T02:09:24.820Z,71.24
2018-11-07T02:11:56.268Z,71.16
2018-11-07T02:14:27.326Z,71.22
2018-11-07T02:16:58.444Z,71.29
2018-11-07T02:19:29.878Z,71.42
2018-11-07T02:22:01.446Z,71.46
2018-11-07T02:24:32.472Z,71.42
2018-11-07T02:27:03.909Z,71.47
2018-11-07T02:29:35.406Z,71.52
2018-11-07T02:32:06.813Z,71.58
2018-11-07T02:34:37.911Z,71.69
2018-11-07T02:37:09.028Z,71.65
2018-11-07T02:39:43.731Z,71.56
2018-11-07T02:42:14.861Z,71.53
2018-11-07T02:44:45.913Z,71.55
2018-11-07T02:47:18.562Z,71.49
2018-11-07T02:49:49.629Z,71.41
2018-11-07T02:52:20.639Z,71.38
2018-11-07T02:54:51.731Z,71.40
2018-11-07T02:57:22.817Z,71.50
2018-11-07T03:02:30.458Z,71.69
2018-11-07T03:05:02.288Z,71.81
2018-11-07T03:07:33.439Z,71.98
2018-11-07T03:10:04.866Z,72.23
2018-11-07T03:12:35.945Z,72.64
2018-11-07T03:15:07.603Z,72.73
2018-11-07T03:17:39.489Z,72.94
2018-11-07T03:20:12.879Z,72.87
2018-11-07T03:22:43.938Z,72.89
2018-11-07T03:25:15.340Z,72.94
2018-11-07T03:27:46.791Z,72.96
2018-11-07T03:30:17.816Z,73.07
2018-11-07T03:32:48.863Z,73.13
2018-11-07T03:35:29.437Z,73.21
2018-11-07T03:38:00.754Z,73.37
2018-11-07T03:40:31.845Z,73.71
2018-11-07T03:43:02.936Z,73.79
2018-11-07T03:45:51.567Z,74.18
2018-11-07T03:48:22.647Z,74.27
2018-11-07T03:50:54.021Z,74.25
2018-11-07T03:53:25.247Z,74.26
2018-11-07T03:55:56.797Z,74.26
2018-11-07T03:58:28.105Z,74.25
2018-11-07T04:00:59.207Z,74.06
2018-11-07T04:03:30.677Z,74.03
2018-11-07T04:06:02.065Z,73.77
2018-11-07T04:08:33.207Z,73.57
2018-11-07T04:11:04.304Z,73.34
2018-11-07T04:13:35.625Z,73.19
2018-11-07T04:16:06.806Z,73.11
2018-11-07T04:18:37.858Z,72.90
2018-11-07T04:21:08.937Z,72.73
2018-11-07T04:23:40.035Z,72.70
2018-11-07T04:26:11.490Z,72.57
2018-11-07T04:28:42.943Z,72.53
2018-11-07T04:31:14.063Z,72.39
2018-11-07T04:33:45.194Z,72.28
2018-11-07T04:36:16.294Z,72.22
2018-11-07T04:38:47.477Z,72.07
2018-11-07T04:41:20.355Z,72.02
2018-11-07T04:43:51.864Z,71.90
2018-11-07T04:46:22.975Z,71.78
2018-11-07T04:48:54.673Z,71.79
2018-11-07T04:51:25.741Z,71.71
2018-11-07T04:53:57.494Z,71.53
2018-11-07T04:56:28.547Z,71.40
2018-11-07T04:58:59.561Z,71.26
2018-11-07T05:01:31.016Z,70.99
2018-11-07T05:04:02.111Z,70.84
2018-11-07T05:06:33.426Z,70.81
2018-11-07T05:09:05.193Z,70.66
2018-11-07T05:11:36.230Z,70.65
2018-11-07T05:14:07.798Z,70.63
2018-11-07T05:16:38.834Z,70.62
2018-11-07T05:19:10.307Z,70.56
2018-11-07T05:21:41.698Z,70.54
2018-11-07T05:24:12.746Z,70.56
2018-11-07T05:26:43.984Z,70.59
2018-11-07T05:29:15.666Z,70.56
2018-11-07T05:31:46.780Z,70.59
2018-11-07T05:34:18.049Z,70.55
2018-11-07T05:36:49.129Z,70.62
2018-11-07T05:39:20.166Z,70.66
2018-11-07T05:41:51.239Z,70.68
2018-11-07T05:44:22.642Z,70.83
2018-11-07T05:46:53.711Z,70.98
2018-11-07T05:49:24.886Z,70.97
2018-11-07T05:51:55.949Z,70.96
2018-11-07T05:54:27.032Z,70.94
2018-11-07T05:56:58.444Z,71.02
2018-11-07T05:59:29.774Z,71.01
2018-11-07T06:02:00.888Z,70.87
2018-11-07T06:04:33.032Z,70.75
2018-11-07T06:07:05.218Z,70.67
2018-11-07T06:09:36.660Z,70.44
2018-11-07T06:12:07.817Z,70.33
2018-11-07T06:14:38.901Z,70.29
2018-11-07T06:17:10.345Z,69.92
2018-11-07T06:19:41.445Z,69.87
2018-11-07T06:22:17.687Z,69.89
2018-11-07T06:24:48.862Z,69.87
2018-11-07T06:27:19.824Z,69.87
2018-11-07T06:29:51.152Z,69.84
2018-11-07T06:32:22.206Z,69.89
2018-11-07T06:34:53.431Z,69.82
2018-11-07T06:37:24.805Z,69.72
2018-11-07T06:39:56.217Z,69.68
2018-11-07T06:42:27.645Z,69.77
2018-11-07T06:44:58.782Z,69.80
2018-11-07T06:47:29.856Z,69.75
2018-11-07T06:50:00.941Z,69.71
2018-11-07T06:52:32.048Z,69.80
2018-11-07T06:55:03.827Z,69.73
2018-11-07T06:57:34.858Z,69.66
2018-11-07T07:00:08.076Z,69.73
2018-11-07T07:02:40.424Z,69.70
2018-11-07T07:05:12.042Z,69.67
2018-11-07T07:07:43.125Z,69.70
2018-11-07T07:10:15.853Z,69.76
2018-11-07T07:12:46.980Z,69.79
2018-11-07T07:15:19.982Z,69.82
2018-11-07T07:17:51.105Z,69.86
2018-11-07T07:20:22.432Z,69.83
2018-11-07T07:22:53.489Z,69.82
2018-11-07T07:25:24.650Z,69.74
2018-11-07T07:27:56.004Z,69.77
2018-11-07T07:30:27.548Z,69.47
2018-11-07T07:32:58.651Z,69.44
2018-11-07T07:35:29.656Z,69.37
2018-11-07T07:38:00.742Z,69.42
2018-11-07T07:40:32.413Z,69.29
2018-11-07T07:43:03.638Z,69.12
2018-11-07T07:45:34.710Z,68.78
2018-11-07T07:48:05.813Z,68.69
2018-11-07T07:50:36.865Z,68.46
2018-11-07T07:53:08.433Z,68.28
2018-11-07T07:55:39.456Z,68.19
2018-11-07T07:58:10.488Z,67.98
2018-11-07T08:00:41.687Z,67.86
2018-11-07T08:03:14.362Z,67.71
2018-11-07T08:05:45.405Z,67.57
2018-11-07T08:08:16.469Z,67.25
2018-11-07T08:10:47.567Z,67.08
2018-11-07T08:13:18.699Z,66.80
2018-11-07T08:15:50.305Z,66.81
2018-11-07T08:18:21.447Z,66.88
2018-11-07T08:20:52.772Z,67.00
2018-11-07T08:23:23.968Z,67.01
2018-11-07T08:25:55.036Z,67.12
2018-11-07T08:28:26.110Z,66.95
2018-11-07T08:30:57.274Z,66.26
2018-11-07T08:33:28.305Z,65.91
2018-11-07T08:35:59.721Z,65.77
2018-11-07T08:38:31.125Z,65.38
2018-11-07T08:41:02.207Z,65.02
2018-11-07T08:43:33.558Z,64.42
2018-11-07T08:46:04.786Z,64.30
2018-11-07T08:51:09.983Z,64.05
2018-11-07T08:53:41.415Z,63.99
2018-11-07T08:56:12.652Z,64.25
2018-11-07T08:58:43.698Z,64.09
2018-11-07T09:01:15.086Z,63.54
2018-11-07T09:03:46.296Z,62.51
2018-11-07T09:06:17.389Z,62.57
2018-11-07T09:08:49.449Z,60.99
2018-11-07T09:11:25.600Z,60.83
2018-11-07T09:13:56.690Z,60.11
2018-11-07T09:16:27.731Z,59.38
2018-11-07T09:18:58.805Z,59.12
2018-11-07T09:21:29.890Z,59.57
2018-11-07T09:24:00.986Z,58.22
2018-11-07T09:26:32.045Z,58.27
2018-11-07T09:29:03.549Z,58.19
2018-11-07T09:31:34.567Z,57.69
2018-11-07T09:34:05.668Z,57.80
2018-11-07T09:36:36.767Z,58.05
2018-11-07T09:39:11.916Z,57.46
2018-11-07T09:41:42.960Z,56.89
2018-11-07T09:44:14.042Z,57.37
2018-11-07T09:46:45.137Z,55.49
2018-11-07T09:49:16.457Z,55.79
2018-11-07T09:51:47.980Z,56.04
2018-11-07T09:54:19.132Z,55.44
2018-11-07T09:56:50.142Z,55.67
2018-11-07T09:59:21.229Z,56.06
2018-11-07T10:01:52.376Z,53.88
2018-11-07T10:04:23.435Z,54.05
2018-11-07T10:06:54.473Z,54.27
2018-11-07T10:09:25.598Z,53.44
2018-11-07T10:11:56.748Z,53.32
2018-11-07T10:14:28.554Z,53.53
2018-11-07T10:16:59.648Z,53.31
2018-11-07T10:19:30.975Z,53.72
2018-11-07T10:22:02.547Z,52.15
2018-11-07T10:24:35.024Z,53.02
2018-11-07T10:27:08.423Z,52.20
2018-11-07T10:29:39.463Z,52.06
2018-11-07T10:32:10.693Z,52.76
2018-11-07T10:34:41.869Z,51.29
2018-11-07T10:37:12.845Z,51.71
2018-11-07T10:39:44.401Z,51.43
2018-11-07T10:42:15.392Z,51.58
2018-11-07T10:44:46.537Z,51.23
2018-11-07T10:47:17.912Z,50.88
2018-11-07T10:49:48.970Z,50.71
2018-11-07T10:52:20.072Z,51.37
2018-11-07T10:54:51.278Z,50.07
2018-11-07T10:57:22.413Z,51.03
2018-11-07T10:59:53.471Z,51.49
2018-11-07T11:02:41.696Z,51.13
2018-11-07T11:05:12.879Z,50.77
2018-11-07T11:07:44.155Z,51.22
2018-11-07T11:10:15.335Z,50.84
2018-11-07T11:12:49.126Z,50.54
2018-11-07T11:15:20.225Z,51.00
2018-11-07T11:17:51.642Z,50.37
2018-11-07T11:20:22.717Z,49.94
2018-11-07T11:22:54.434Z,49.95
2018-11-07T11:25:25.689Z,50.31
2018-11-07T11:27:56.819Z,49.97
2018-11-07T11:30:27.896Z,50.26
2018-11-07T11:33:01.801Z,50.26
2018-11-07T11:35:32.865Z,50.57
2018-11-07T11:38:03.915Z,50.61
2018-11-07T11:40:35.303Z,50.35
2018-11-07T11:43:08.961Z,49.94
2018-11-07T11:45:42.199Z,50.79
2018-11-07T11:48:14.250Z,50.60
2018-11-07T11:50:45.287Z,49.85
2018-11-07T11:53:17.662Z,49.81
2018-11-07T11:55:48.788Z,49.77
2018-11-07T11:58:19.849Z,49.97
2018-11-07T12:00:50.915Z,50.58
2018-11-07T12:03:21.980Z,50.60
2018-11-07T12:05:53.096Z,50.38
2018-11-07T12:08:24.238Z,50.21
2018-11-07T12:10:55.229Z,50.69
2018-11-07T12:13:26.710Z,50.78
2018-11-07T12:16:00.579Z,50.83
2018-11-07T12:18:31.952Z,51.02
2018-11-07T12:21:04.540Z,50.70
2018-11-07T12:23:36.026Z,50.83
2018-11-07T12:26:07.400Z,50.06
2018-11-07T12:28:38.908Z,49.41
2018-11-07T12:31:09.998Z,48.99
2018-11-07T12:33:41.344Z,49.19
2018-11-07T12:36:15.042Z,48.81
2018-11-07T12:38:46.337Z,49.22
2018-11-07T12:41:17.447Z,48.85
2018-11-07T12:43:53.755Z,48.85
2018-11-07T12:46:25.230Z,48.85
2018-11-07T12:48:57.588Z,49.10
2018-11-07T12:51:28.609Z,47.86
2018-11-07T12:54:04.512Z,48.62
2018-11-07T12:56:37.800Z,47.86
2018-11-07T12:59:14.142Z,47.93
2018-11-07T13:01:45.033Z,48.67
2018-11-07T13:04:16.393Z,48.62
2018-11-07T13:06:47.759Z,48.75
2018-11-07T13:09:19.143Z,49.07
2018-11-07T13:11:50.632Z,48.93
2018-11-07T13:14:22.155Z,48.71
2018-11-07T13:16:53.611Z,48.42
2018-11-07T13:19:25.875Z,48.95
2018-11-07T13:22:02.744Z,48.78
2018-11-07T13:24:37.807Z,49.02
2018-11-07T13:27:12.369Z,49.25
2018-11-07T13:29:44.927Z,49.74
2018-11-07T13:32:16.021Z,49.56
2018-11-07T13:34:49.255Z,49.33
2018-11-07T13:37:25.356Z,49.38
2018-11-07T13:39:56.580Z,49.85
2018-11-07T13:42:30.953Z,48.64
2018-11-07T13:45:06.682Z,47.99
2018-11-07T13:47:38.236Z,48.08
2018-11-07T13:50:09.816Z,47.88
2018-11-07T13:52:41.042Z,48.32
2018-11-07T13:55:14.625Z,48.73
2018-11-07T13:57:46.059Z,48.64
2018-11-07T14:00:19.243Z,48.60
2018-11-07T14:02:50.906Z,48.40
2018-11-07T14:05:22.126Z,49.03
2018-11-07T14:08:06.991Z,49.13
2018-11-07T14:10:38.026Z,49.20
2018-11-07T14:13:16.258Z,48.96
2018-11-07T14:15:49.756Z,49.37
2018-11-07T14:18:20.701Z,49.42
2018-11-07T14:20:51.821Z,49.57
2018-11-07T14:23:27.134Z,49.86
2018-11-07T14:25:59.456Z,49.85
2018-11-07T14:28:32.225Z,49.54
2018-11-07T14:31:07.803Z,49.43
2018-11-07T14:33:38.712Z,49.51
2018-11-07T14:36:10.112Z,49.24
2018-11-07T14:38:42.788Z,49.40
2018-11-07T14:41:15.201Z,49.43
2018-11-07T14:43:51.386Z,49.36
2018-11-07T14:46:25.197Z,49.63
2018-11-07T14:48:59.113Z,49.67
2018-11-07T14:51:33.066Z,49.97
2018-11-07T14:54:04.628Z,50.13
2018-11-07T14:56:40.289Z,50.38
2018-11-07T14:59:13.412Z,49.98
2018-11-07T15:01:44.364Z,50.21
2018-11-07T15:04:19.711Z,50.62
2018-11-07T15:06:50.743Z,50.70
2018-11-07T15:09:21.834Z,51.20
2018-11-07T15:11:53.021Z,50.49
2018-11-07T15:14:28.794Z,50.43
2018-11-07T15:16:59.853Z,50.73
2018-11-07T15:19:31.315Z,50.85
2018-11-07T15:22:02.432Z,51.06
2018-11-07T15:24:33.529Z,51.26
2018-11-07T15:27:05.094Z,51.26
2018-11-07T15:29:36.193Z,51.08
2018-11-07T15:32:09.245Z,51.15
2018-11-07T15:34:40.314Z,51.23
2018-11-07T15:37:11.329Z,51.32
2018-11-07T15:39:43.197Z,51.40
2018-11-07T15:42:14.646Z,51.67
2018-11-07T15:44:46.163Z,51.90
2018-11-07T15:47:17.514Z,52.04
2018-11-07T15:50:06.334Z,52.11
2018-11-07T15:52:37.680Z,52.33
2018-11-07T15:55:09.535Z,52.35
2018-11-07T15:57:40.871Z,52.57
2018-11-07T16:00:16.913Z,52.78
2018-11-07T16:02:48.006Z,52.62
2018-11-07T16:05:19.456Z,52.68
2018-11-07T16:07:50.551Z,52.72
2018-11-07T16:10:21.687Z,52.94
2018-11-07T16:13:00.622Z,53.00
2018-11-07T16:15:34.674Z,52.94
2018-11-07T16:18:05.717Z,53.02
2018-11-07T16:20:36.811Z,53.37
2018-11-07T16:23:08.814Z,53.47
2018-11-07T16:25:39.845Z,53.35
2018-11-07T16:28:12.385Z,53.56
2018-11-07T16:30:43.478Z,53.61
2018-11-07T16:33:14.546Z,53.72
2018-11-07T16:35:45.610Z,53.80
2018-11-07T16:38:17.077Z,53.82
2018-11-07T16:40:48.305Z,53.79
2018-11-07T16:43:26.872Z,53.93
2018-11-07T16:45:59.922Z,54.01
2018-11-07T16:48:31.034Z,54.00
2018-11-07T16:51:02.412Z,53.94
2018-11-07T16:53:33.798Z,54.13
2018-11-07T16:56:05.189Z,54.17
2018-11-07T16:58:36.272Z,54.38
2018-11-07T17:01:07.569Z,54.65
2018-11-07T17:03:38.652Z,54.88
2018-11-07T17:06:09.792Z,55.25
2018-11-07T17:08:40.942Z,55.64
2018-11-07T17:11:11.976Z,55.89
2018-11-07T17:13:43.137Z,55.88
2018-11-07T17:16:14.360Z,56.24
2018-11-07T17:18:46.256Z,56.29
2018-11-07T17:21:17.306Z,56.34
2018-11-07T17:23:49.696Z,56.74
2018-11-07T17:26:20.743Z,56.88
2018-11-07T17:28:53.767Z,57.04
2018-11-07T17:31:24.857Z,57.51
2018-11-07T17:33:55.925Z,57.67
2018-11-07T17:36:27.345Z,57.88
2018-11-07T17:38:58.467Z,58.10
2018-11-07T17:41:32.905Z,58.11
2018-11-07T17:44:03.892Z,58.36
2018-11-07T17:46:35.352Z,58.70
2018-11-07T17:49:06.665Z,58.81
2018-11-07T17:51:37.790Z,58.87
2018-11-07T17:54:08.836Z,59.34
2018-11-07T17:56:40.301Z,59.49
2018-11-07T17:59:11.369Z,59.71
2018-11-07T18:01:42.444Z,59.66
2018-11-07T18:04:14.445Z,60.08
2018-11-07T18:06:45.783Z,60.25
2018-11-07T18:09:17.262Z,60.29
2018-11-07T18:11:48.679Z,60.49
2018-11-07T18:14:19.870Z,60.77
2018-11-07T18:16:52.508Z,61.02
2018-11-07T18:19:23.856Z,60.92
2018-11-07T18:21:55.135Z,61.17
2018-11-07T18:24:26.553Z,61.28
2018-11-07T18:26:57.757Z,61.33
2018-11-07T18:29:28.821Z,61.37
2018-11-07T18:32:00.361Z,61.63
2018-11-07T18:34:31.514Z,61.68
2018-11-07T18:37:02.556Z,61.71
2018-11-07T18:39:33.777Z,61.70
2018-11-07T18:42:07.490Z,61.90
2018-11-07T18:44:38.838Z,61.76
2018-11-07T18:47:09.729Z,61.97
2018-11-07T18:49:41.136Z,61.87
2018-11-07T18:52:12.538Z,61.78
2018-11-07T18:54:43.644Z,62.09
2018-11-07T18:57:14.786Z,62.16
2018-11-07T18:59:47.621Z,62.16
2018-11-07T19:02:19.042Z,62.24
2018-11-07T19:04:50.206Z,62.11
2018-11-07T19:07:31.035Z,62.11
2018-11-07T19:10:02.614Z,62.24
2018-11-07T19:12:33.634Z,62.12
2018-11-07T19:15:04.862Z,62.22
2018-11-07T19:17:36.303Z,62.21
2018-11-07T19:20:08.439Z,62.14
2018-11-07T19:22:39.545Z,62.04
2018-11-07T19:25:13.634Z,62.00
2018-11-07T19:27:45.185Z,62.04
2018-11-07T19:30:17.841Z,62.13
2018-11-07T19:32:49.977Z,62.24
2018-11-07T19:35:21.371Z,62.31
2018-11-07T19:37:52.954Z,62.39
2018-11-07T19:40:26.252Z,62.50
2018-11-07T19:42:57.833Z,62.32
2018-11-07T19:45:28.924Z,62.41
2018-11-07T19:48:06.661Z,62.48
2018-11-07T19:50:40.597Z,62.46
2018-11-07T19:53:17.626Z,62.78
2018-11-07T19:55:52.526Z,62.71
2018-11-07T19:58:24.751Z,62.62
2018-11-07T20:00:58.707Z,62.77
2018-11-07T20:03:30.676Z,62.74
2018-11-07T20:06:04.326Z,62.88
2018-11-07T20:08:35.601Z,62.79
2018-11-07T20:11:06.994Z,63.09
2018-11-07T20:13:38.260Z,63.23
2018-11-07T20:16:09.474Z,63.33
2018-11-07T20:18:43.842Z,63.33
2018-11-07T20:21:15.036Z,63.41
2018-11-07T20:23:46.313Z,63.49
2018-11-07T20:26:17.421Z,63.34
2018-11-07T20:28:53.897Z,63.44
2018-11-07T20:31:25.200Z,63.47
2018-11-07T20:33:56.333Z,63.37
2018-11-07T20:36:32.139Z,63.46
2018-11-07T20:39:03.193Z,63.56
2018-11-07T20:41:34.423Z,63.86
2018-11-07T20:44:05.463Z,63.82
2018-11-07T20:46:36.921Z,63.92
2018-11-07T20:49:08.806Z,64.02
2018-11-07T20:51:39.872Z,64.07
2018-11-07T20:54:11.006Z,64.09
2018-11-07T20:56:42.093Z,64.02
2018-11-07T20:59:18.077Z,63.96
2018-11-07T21:01:49.244Z,64.01
2018-11-07T21:04:20.304Z,64.04
2018-11-07T21:06:53.786Z,64.11
2018-11-07T21:09:25.281Z,64.29
2018-11-07T21:11:56.624Z,64.29
2018-11-07T21:14:28.150Z,64.30
2018-11-07T21:17:02.173Z,64.28
2018-11-07T21:19:40.229Z,64.46
2018-11-07T21:22:15.136Z,64.46
2018-11-07T21:24:51.020Z,64.41
2018-11-07T21:27:37.177Z,64.43
2018-11-07T21:30:14.818Z,64.42
2018-11-07T21:33:07.186Z,64.57
2018-11-07T21:35:56.578Z,64.62
2018-11-07T21:38:30.251Z,64.76
2018-11-07T21:41:04.058Z,64.79
2018-11-07T21:43:59.735Z,64.78
2018-11-07T21:46:35.371Z,64.75
2018-11-07T21:49:12.719Z,64.82
2018-11-07T21:51:56.642Z,64.95
2018-11-07T21:54:31.667Z,64.98
2018-11-07T21:57:06.610Z,64.99
2018-11-07T21:59:48.952Z,65.08
2018-11-07T22:02:37.443Z,65.10
2018-11-07T22:05:11.844Z,65.09
2018-11-07T22:08:16.616Z,65.11
2018-11-07T22:10:49.781Z,65.21
2018-11-07T22:13:27.046Z,65.35
2018-11-07T22:15:59.668Z,65.42
2018-11-07T22:18:33.295Z,65.45
2018-11-07T22:21:32.292Z,65.57
2018-11-07T22:24:32.011Z,65.59
2018-11-07T22:27:39.493Z,65.66
2018-11-07T22:30:12.822Z,65.81
2018-11-07T22:33:30.043Z,65.94
2018-11-07T22:36:03.718Z,65.91
2018-11-07T22:39:10.666Z,66.07
2018-11-07T22:41:54.259Z,66.17
2018-11-07T22:45:21.314Z,66.25
2018-11-07T22:48:22.398Z,66.34
2018-11-07T22:51:02.491Z,66.46
2018-11-07T22:53:50.592Z,66.45
2018-11-07T22:57:06.481Z,66.41
2018-11-07T23:00:15.708Z,66.45
2018-11-07T23:03:20.814Z,66.55
2018-11-07T23:06:05.946Z,66.77
2018-11-07T23:08:39.521Z,66.92
2018-11-07T23:11:21.175Z,67.04
2018-11-07T23:13:54.991Z,67.15
2018-11-07T23:16:26.254Z,67.23
2018-11-07T23:19:00.127Z,67.33
2018-11-07T23:21:37.762Z,67.53
2018-11-07T23:24:11.228Z,67.63
2018-11-07T23:26:48.009Z,67.70
2018-11-07T23:29:29.158Z,67.60
2018-11-07T23:32:30.127Z,67.51
2018-11-07T23:35:12.825Z,67.48
2018-11-07T23:37:47.373Z,67.42
2018-11-07T23:40:21.237Z,67.44
2018-11-07T23:42:55.325Z,67.50
2018-11-07T23:45:31.279Z,67.62
2018-11-07T23:48:04.527Z,67.58
2018-11-07T23:50:41.961Z,67.61
2018-11-07T23:53:15.964Z,67.77
2018-11-07T23:55:57.346Z,67.78
2018-11-07T23:58:30.722Z,67.82
